sensor_id;sensor_type;location;lat;lon;timestamp;pressure;altitude;pressure_sealevel;temperature;humidity
23899;BME280;20544;50.018;20.010;2023-02-18T00:01:37;98383.41;;;10.30;100.00
23899;BME280;20544;50.018;20.010;2023-02-18T00:04:50;98385.17;;;10.23;100.00
23899;BME280;20544;50.018;20.010;2023-02-18T00:08:06;98387.02;;;10.22;100.00
23899;BME280;20544;50.018;20.010;2023-02-18T00:11:20;98384.92;;;10.17;100.00
23899;BME280;20544;50.018;20.010;2023-02-18T00:14:34;98379.27;;;10.20;100.00
23899;BME280;20544;50.018;20.010;2023-02-18T00:17:48;98382.27;;;10.17;100.00
23899;BME280;20544;50.018;20.010;2023-02-18T00:21:03;98381.47;;;10.17;100.00
23899;BME280;20544;50.018;20.010;2023-02-18T00:24:18;98377.78;;;10.18;100.00
23899;BME280;20544;50.018;20.010;2023-02-18T00:27:31;98378.98;;;10.15;100.00
23899;BME280;20544;50.018;20.010;2023-02-18T00:30:45;98375.53;;;10.15;100.00
23899;BME280;20544;50.018;20.010;2023-02-18T00:33:59;98362.03;;;10.10;100.00
23899;BME280;20544;50.018;20.010;2023-02-18T00:37:14;98373.83;;;10.07;100.00
23899;BME280;20544;50.018;20.010;2023-02-18T00:40:27;98369.98;;;10.10;100.00
23899;BME280;20544;50.018;20.010;2023-02-18T00:43:41;98370.34;;;10.07;100.00
23899;BME280;20544;50.018;20.010;2023-02-18T00:46:57;98379.73;;;10.09;100.00
23899;BME280;20544;50.018;20.010;2023-02-18T00:50:11;98358.63;;;10.16;100.00
23899;BME280;20544;50.018;20.010;2023-02-18T00:53:24;98369.83;;;10.18;100.00
23899;BME280;20544;50.018;20.010;2023-02-18T00:56:38;98363.16;;;10.22;100.00
23899;BME280;20544;50.018;20.010;2023-02-18T00:59:51;98363.61;;;10.26;100.00
23899;BME280;20544;50.018;20.010;2023-02-18T01:03:05;98366.06;;;10.27;100.00
23899;BME280;20544;50.018;20.010;2023-02-18T01:06:20;98384.05;;;10.32;100.00
23899;BME280;20544;50.018;20.010;2023-02-18T01:09:34;98391.89;;;10.40;100.00
23899;BME280;20544;50.018;20.010;2023-02-18T01:12:48;98385.22;;;10.44;100.00
23899;BME280;20544;50.018;20.010;2023-02-18T01:16:02;98408.88;;;10.46;100.00
23899;BME280;20544;50.018;20.010;2023-02-18T01:19:17;98409.08;;;10.44;100.00
23899;BME280;20544;50.018;20.010;2023-02-18T01:22:30;98440.00;;;10.37;100.00
23899;BME280;20544;50.018;20.010;2023-02-18T01:25:44;98460.73;;;10.33;100.00
23899;BME280;20544;50.018;20.010;2023-02-18T01:28:58;98473.77;;;10.13;100.00
23899;BME280;20544;50.018;20.010;2023-02-18T01:32:12;98473.22;;;10.03;100.00
23899;BME280;20544;50.018;20.010;2023-02-18T01:35:27;98460.91;;;9.95;100.00
23899;BME280;20544;50.018;20.010;2023-02-18T01:38:41;98470.17;;;9.84;100.00
23899;BME280;20544;50.018;20.010;2023-02-18T01:41:55;98480.77;;;9.84;100.00
23899;BME280;20544;50.018;20.010;2023-02-18T01:48:52;98475.29;;;9.71;100.00
23899;BME280;20544;50.018;20.010;2023-02-18T01:52:07;98479.13;;;9.68;100.00
23899;BME280;20544;50.018;20.010;2023-02-18T01:55:22;98474.56;;;9.62;100.00
23899;BME280;20544;50.018;20.010;2023-02-18T01:58:36;98490.53;;;9.54;100.00
23899;BME280;20544;50.018;20.010;2023-02-18T02:01:50;98490.07;;;9.50;100.00
23899;BME280;20544;50.018;20.010;2023-02-18T02:05:06;98487.95;;;9.46;100.00
23899;BME280;20544;50.018;20.010;2023-02-18T02:08:20;98489.52;;;9.40;100.00
23899;BME280;20544;50.018;20.010;2023-02-18T02:11:44;98496.00;;;9.37;100.00
23899;BME280;20544;50.018;20.010;2023-02-18T02:15:20;98489.59;;;9.32;100.00
23899;BME280;20544;50.018;20.010;2023-02-18T02:18:43;98493.89;;;9.33;100.00
23899;BME280;20544;50.018;20.010;2023-02-18T02:22:09;98499.00;;;9.34;100.00
23899;BME280;20544;50.018;20.010;2023-02-18T02:26:04;98498.27;;;9.41;100.00
23899;BME280;20544;50.018;20.010;2023-02-18T02:36:59;98501.02;;;9.32;100.00
23899;BME280;20544;50.018;20.010;2023-02-18T02:40:18;98511.33;;;9.27;100.00
23899;BME280;20544;50.018;20.010;2023-02-18T02:43:35;98513.51;;;9.23;100.00
23899;BME280;20544;50.018;20.010;2023-02-18T02:46:53;98504.27;;;9.19;100.00
23899;BME280;20544;50.018;20.010;2023-02-18T02:50:12;98492.88;;;9.19;100.00
23899;BME280;20544;50.018;20.010;2023-02-18T02:53:27;98515.22;;;9.16;100.00
23899;BME280;20544;50.018;20.010;2023-02-18T02:56:42;98510.27;;;9.13;100.00
23899;BME280;20544;50.018;20.010;2023-02-18T02:59:58;98514.23;;;9.17;100.00
23899;BME280;20544;50.018;20.010;2023-02-18T03:07:11;98538.38;;;9.14;100.00
23899;BME280;20544;50.018;20.010;2023-02-18T03:10:33;98546.32;;;9.14;100.00
23899;BME280;20544;50.018;20.010;2023-02-18T03:14:01;98548.16;;;9.14;100.00
23899;BME280;20544;50.018;20.010;2023-02-18T03:17:19;98551.51;;;9.08;100.00
23899;BME280;20544;50.018;20.010;2023-02-18T03:20:35;98566.26;;;9.02;100.00
23899;BME280;20544;50.018;20.010;2023-02-18T03:23:52;98560.81;;;9.03;100.00
23899;BME280;20544;50.018;20.010;2023-02-18T03:27:10;98571.92;;;8.99;100.00
23899;BME280;20544;50.018;20.010;2023-02-18T03:30:27;98560.86;;;8.95;100.00
23899;BME280;20544;50.018;20.010;2023-02-18T03:33:43;98564.69;;;8.93;100.00
23899;BME280;20544;50.018;20.010;2023-02-18T03:37:00;98564.03;;;8.90;100.00
23899;BME280;20544;50.018;20.010;2023-02-18T03:40:14;98565.68;;;8.92;100.00
23899;BME280;20544;50.018;20.010;2023-02-18T03:43:30;98571.67;;;8.85;100.00
23899;BME280;20544;50.018;20.010;2023-02-18T03:46:44;98570.49;;;8.88;100.00
23899;BME280;20544;50.018;20.010;2023-02-18T03:49:57;98554.52;;;8.81;100.00
23899;BME280;20544;50.018;20.010;2023-02-18T03:53:12;98590.07;;;8.79;100.00
23899;BME280;20544;50.018;20.010;2023-02-18T03:56:26;98578.54;;;8.71;100.00
23899;BME280;20544;50.018;20.010;2023-02-18T03:59:39;98595.22;;;8.72;100.00
23899;BME280;20544;50.018;20.010;2023-02-18T04:02:53;98589.59;;;8.75;100.00
23899;BME280;20544;50.018;20.010;2023-02-18T04:06:07;98605.97;;;8.70;100.00
23899;BME280;20544;50.018;20.010;2023-02-18T04:09:21;98601.86;;;8.68;100.00
23899;BME280;20544;50.018;20.010;2023-02-18T04:12:34;98598.73;;;8.64;100.00
23899;BME280;20544;50.018;20.010;2023-02-18T04:15:49;98590.63;;;8.66;100.00
23899;BME280;20544;50.018;20.010;2023-02-18T04:19:02;98603.03;;;8.65;100.00
23899;BME280;20544;50.018;20.010;2023-02-18T04:22:16;98588.85;;;8.58;100.00
23899;BME280;20544;50.018;20.010;2023-02-18T04:25:30;98594.98;;;8.58;100.00
23899;BME280;20544;50.018;20.010;2023-02-18T04:28:43;98596.13;;;8.56;100.00
23899;BME280;20544;50.018;20.010;2023-02-18T04:31:57;98602.58;;;8.53;100.00
23899;BME280;20544;50.018;20.010;2023-02-18T04:35:11;98596.81;;;8.50;100.00
23899;BME280;20544;50.018;20.010;2023-02-18T04:38:24;98610.54;;;8.45;100.00
23899;BME280;20544;50.018;20.010;2023-02-18T04:41:38;98591.73;;;8.40;100.00
23899;BME280;20544;50.018;20.010;2023-02-18T04:44:51;98595.37;;;8.39;100.00
23899;BME280;20544;50.018;20.010;2023-02-18T04:48:05;98594.53;;;8.38;100.00
23899;BME280;20544;50.018;20.010;2023-02-18T04:51:19;98595.06;;;8.34;100.00
23899;BME280;20544;50.018;20.010;2023-02-18T04:54:32;98596.56;;;8.28;100.00
23899;BME280;20544;50.018;20.010;2023-02-18T04:57:46;98602.33;;;8.32;100.00
23899;BME280;20544;50.018;20.010;2023-02-18T05:01:00;98594.91;;;8.27;100.00
23899;BME280;20544;50.018;20.010;2023-02-18T05:04:14;98598.72;;;8.24;100.00
23899;BME280;20544;50.018;20.010;2023-02-18T05:07:30;98613.27;;;8.20;100.00
23899;BME280;20544;50.018;20.010;2023-02-18T05:10:44;98619.38;;;8.21;100.00
23899;BME280;20544;50.018;20.010;2023-02-18T05:13:58;98616.41;;;8.24;100.00
23899;BME280;20544;50.018;20.010;2023-02-18T05:17:12;98621.38;;;8.19;100.00
23899;BME280;20544;50.018;20.010;2023-02-18T05:20:25;98612.97;;;8.15;100.00
23899;BME280;20544;50.018;20.010;2023-02-18T05:23:39;98623.86;;;8.12;100.00
23899;BME280;20544;50.018;20.010;2023-02-18T05:26:53;98636.75;;;8.07;100.00
23899;BME280;20544;50.018;20.010;2023-02-18T05:30:07;98624.21;;;8.09;100.00
23899;BME280;20544;50.018;20.010;2023-02-18T05:33:22;98631.83;;;8.04;100.00
23899;BME280;20544;50.018;20.010;2023-02-18T05:36:35;98634.79;;;8.01;100.00
23899;BME280;20544;50.018;20.010;2023-02-18T05:39:49;98636.77;;;7.99;100.00
23899;BME280;20544;50.018;20.010;2023-02-18T05:43:03;98633.81;;;7.93;100.00
23899;BME280;20544;50.018;20.010;2023-02-18T05:46:16;98632.33;;;7.91;100.00
23899;BME280;20544;50.018;20.010;2023-02-18T05:49:30;98635.81;;;7.83;100.00
23899;BME280;20544;50.018;20.010;2023-02-18T05:52:45;98654.30;;;7.83;100.00
23899;BME280;20544;50.018;20.010;2023-02-18T05:55:58;98658.42;;;7.77;100.00
23899;BME280;20544;50.018;20.010;2023-02-18T05:59:13;98657.61;;;7.77;100.00
23899;BME280;20544;50.018;20.010;2023-02-18T06:02:26;98655.31;;;7.74;100.00
23899;BME280;20544;50.018;20.010;2023-02-18T06:05:40;98672.14;;;7.73;100.00
23899;BME280;20544;50.018;20.010;2023-02-18T06:08:54;98670.98;;;7.75;100.00
23899;BME280;20544;50.018;20.010;2023-02-18T06:12:08;98684.18;;;7.75;100.00
23899;BME280;20544;50.018;20.010;2023-02-18T06:15:21;98677.39;;;7.81;100.00
23899;BME280;20544;50.018;20.010;2023-02-18T06:18:37;98675.25;;;7.85;100.00
23899;BME280;20544;50.018;20.010;2023-02-18T06:21:51;98672.95;;;7.82;100.00
23899;BME280;20544;50.018;20.010;2023-02-18T06:25:06;98664.19;;;7.81;100.00
23899;BME280;20544;50.018;20.010;2023-02-18T06:28:20;98669.97;;;8.01;100.00
23899;BME280;20544;50.018;20.010;2023-02-18T06:31:34;98661.64;;;8.21;100.00
23899;BME280;20544;50.018;20.010;2023-02-18T06:34:48;98669.88;;;8.34;100.00
23899;BME280;20544;50.018;20.010;2023-02-18T06:38:01;98681.06;;;8.45;100.00
23899;BME280;20544;50.018;20.010;2023-02-18T06:41:15;98673.97;;;8.45;100.00
23899;BME280;20544;50.018;20.010;2023-02-18T06:44:29;98679.94;;;8.39;100.00
23899;BME280;20544;50.018;20.010;2023-02-18T06:47:43;98684.23;;;8.40;100.00
23899;BME280;20544;50.018;20.010;2023-02-18T06:50:59;98692.80;;;8.42;100.00
23899;BME280;20544;50.018;20.010;2023-02-18T06:54:12;98684.06;;;8.41;100.00
23899;BME280;20544;50.018;20.010;2023-02-18T06:57:26;98701.39;;;8.44;100.00
23899;BME280;20544;50.018;20.010;2023-02-18T07:00:41;98688.99;;;8.45;100.00
23899;BME280;20544;50.018;20.010;2023-02-18T07:03:55;98681.58;;;8.48;100.00
23899;BME280;20544;50.018;20.010;2023-02-18T07:07:21;98686.69;;;8.50;100.00
23899;BME280;20544;50.018;20.010;2023-02-18T07:10:34;98697.77;;;8.45;100.00
23899;BME280;20544;50.018;20.010;2023-02-18T07:13:48;98700.39;;;8.53;100.00
23899;BME280;20544;50.018;20.010;2023-02-18T07:17:02;98699.22;;;8.56;100.00
23899;BME280;20544;50.018;20.010;2023-02-18T07:20:18;98710.28;;;8.60;100.00
23899;BME280;20544;50.018;20.010;2023-02-18T07:23:32;98706.66;;;8.61;100.00
23899;BME280;20544;50.018;20.010;2023-02-18T07:26:46;98707.64;;;8.60;100.00
23899;BME280;20544;50.018;20.010;2023-02-18T07:30:00;98696.92;;;8.61;100.00
23899;BME280;20544;50.018;20.010;2023-02-18T07:33:14;98684.02;;;8.58;100.00
23899;BME280;20544;50.018;20.010;2023-02-18T07:36:28;98703.38;;;8.58;100.00
23899;BME280;20544;50.018;20.010;2023-02-18T07:39:44;98700.39;;;8.53;100.00
23899;BME280;20544;50.018;20.010;2023-02-18T07:43:02;98691.47;;;8.54;100.00
23899;BME280;20544;50.018;20.010;2023-02-18T07:46:16;98689.14;;;8.60;100.00
23899;BME280;20544;50.018;20.010;2023-02-18T07:49:34;98690.61;;;8.62;100.00
23899;BME280;20544;50.018;20.010;2023-02-18T07:52:50;98685.00;;;8.65;100.00
23899;BME280;20544;50.018;20.010;2023-02-18T07:56:05;98680.83;;;8.71;100.00
23899;BME280;20544;50.018;20.010;2023-02-18T07:59:22;98668.95;;;8.67;100.00
23899;BME280;20544;50.018;20.010;2023-02-18T08:02:35;98681.69;;;8.63;100.00
23899;BME280;20544;50.018;20.010;2023-02-18T08:05:51;98684.16;;;8.65;100.00
23899;BME280;20544;50.018;20.010;2023-02-18T08:09:08;98675.53;;;8.71;100.00
23899;BME280;20544;50.018;20.010;2023-02-18T08:12:22;98680.02;;;8.70;100.00
23899;BME280;20544;50.018;20.010;2023-02-18T08:15:36;98683.47;;;8.71;100.00
23899;BME280;20544;50.018;20.010;2023-02-18T08:18:50;98693.23;;;8.70;100.00
23899;BME280;20544;50.018;20.010;2023-02-18T08:22:08;98700.98;;;8.72;100.00
23899;BME280;20544;50.018;20.010;2023-02-18T08:25:25;98691.58;;;8.69;100.00
23899;BME280;20544;50.018;20.010;2023-02-18T08:28:38;98692.24;;;8.71;100.00
23899;BME280;20544;50.018;20.010;2023-02-18T08:31:52;98688.13;;;8.69;100.00
23899;BME280;20544;50.018;20.010;2023-02-18T08:35:09;98693.59;;;8.67;100.00
23899;BME280;20544;50.018;20.010;2023-02-18T08:38:24;98693.89;;;8.72;100.00
23899;BME280;20544;50.018;20.010;2023-02-18T08:41:40;98699.81;;;8.74;100.00
23899;BME280;20544;50.018;20.010;2023-02-18T08:44:56;98692.06;;;8.73;100.00
23899;BME280;20544;50.018;20.010;2023-02-18T08:48:12;98700.60;;;8.83;100.00
23899;BME280;20544;50.018;20.010;2023-02-18T08:51:28;98700.09;;;8.88;100.00
23899;BME280;20544;50.018;20.010;2023-02-18T08:54:45;98701.56;;;8.90;100.00
23899;BME280;20544;50.018;20.010;2023-02-18T08:58:00;98704.03;;;8.92;100.00
23899;BME280;20544;50.018;20.010;2023-02-18T09:01:15;98705.98;;;8.98;100.00
23899;BME280;20544;50.018;20.010;2023-02-18T09:07:38;98700.55;;;9.00;100.00
23899;BME280;20544;50.018;20.010;2023-02-18T09:10:57;98698.89;;;8.99;100.00
23899;BME280;20544;50.018;20.010;2023-02-18T09:14:14;98698.89;;;8.99;100.00
23899;BME280;20544;50.018;20.010;2023-02-18T09:17:28;98704.00;;;9.00;100.00
23899;BME280;20544;50.018;20.010;2023-02-18T09:20:49;98707.16;;;8.96;100.00
23899;BME280;20544;50.018;20.010;2023-02-18T09:24:07;98712.13;;;8.99;100.00
23899;BME280;20544;50.018;20.010;2023-02-18T09:27:21;98712.30;;;8.97;100.00
23899;BME280;20544;50.018;20.010;2023-02-18T09:30:35;98715.76;;;8.98;100.00
23899;BME280;20544;50.018;20.010;2023-02-18T09:33:52;98712.75;;;9.01;100.00
23899;BME280;20544;50.018;20.010;2023-02-18T09:37:07;98720.69;;;9.01;100.00
23899;BME280;20544;50.018;20.010;2023-02-18T09:40:23;98712.59;;;9.02;100.00
23899;BME280;20544;50.018;20.010;2023-02-18T09:43:39;98719.36;;;9.05;100.00
23899;BME280;20544;50.018;20.010;2023-02-18T09:46:58;98704.13;;;9.07;100.00
23899;BME280;20544;50.018;20.010;2023-02-18T09:50:18;98691.55;;;9.09;100.00
23899;BME280;20544;50.018;20.010;2023-02-18T09:53:33;98692.91;;;9.05;100.00
23899;BME280;20544;50.018;20.010;2023-02-18T09:56:47;98683.43;;;9.11;100.00
23899;BME280;20544;50.018;20.010;2023-02-18T10:00:04;98703.42;;;9.13;100.00
23899;BME280;20544;50.018;20.010;2023-02-18T10:03:21;98692.55;;;9.08;100.00
23899;BME280;20544;50.018;20.010;2023-02-18T10:06:36;98684.61;;;9.08;100.00
23899;BME280;20544;50.018;20.010;2023-02-18T10:09:51;98696.19;;;9.07;100.00
23899;BME280;20544;50.018;20.010;2023-02-18T10:13:08;98680.48;;;9.05;100.00
23899;BME280;20544;50.018;20.010;2023-02-18T10:16:25;98668.80;;;9.00;100.00
23899;BME280;20544;50.018;20.010;2023-02-18T10:19:39;98655.87;;;9.05;100.00
23899;BME280;20544;50.018;20.010;2023-02-18T10:22:56;98646.87;;;9.14;100.00
23899;BME280;20544;50.018;20.010;2023-02-18T10:26:13;98662.22;;;9.19;100.00
23899;BME280;20544;50.018;20.010;2023-02-18T10:29:27;98648.29;;;9.25;100.00
23899;BME280;20544;50.018;20.010;2023-02-18T10:32:42;98638.17;;;9.29;100.00
23899;BME280;20544;50.018;20.010;2023-02-18T10:35:58;98638.80;;;9.31;100.00
23899;BME280;20544;50.018;20.010;2023-02-18T10:43:02;98649.09;;;9.26;100.00
23899;BME280;20544;50.018;20.010;2023-02-18T10:46:21;98647.30;;;9.26;100.00
23899;BME280;20544;50.018;20.010;2023-02-18T10:53:10;98636.09;;;9.16;100.00
23899;BME280;20544;50.018;20.010;2023-02-18T10:56:32;98644.69;;;9.18;100.00
23899;BME280;20544;50.018;20.010;2023-02-18T10:59:57;98642.41;;;9.15;100.00
23899;BME280;20544;50.018;20.010;2023-02-18T11:03:21;98619.45;;;9.07;100.00
23899;BME280;20544;50.018;20.010;2023-02-18T11:06:39;98625.59;;;9.08;100.00
23899;BME280;20544;50.018;20.010;2023-02-18T11:09:55;98606.41;;;9.05;100.00
23899;BME280;20544;50.018;20.010;2023-02-18T11:13:11;98616.88;;;8.99;100.00
23899;BME280;20544;50.018;20.010;2023-02-18T11:16:34;98613.17;;;9.08;100.00
23899;BME280;20544;50.018;20.010;2023-02-18T11:19:53;98588.73;;;9.06;100.00
23899;BME280;20544;50.018;20.010;2023-02-18T11:23:19;98594.60;;;9.16;100.00
23899;BME280;20544;50.018;20.010;2023-02-18T11:26:33;98602.02;;;9.21;100.00
23899;BME280;20544;50.018;20.010;2023-02-18T11:29:50;98595.41;;;9.17;100.00
23899;BME280;20544;50.018;20.010;2023-02-18T11:33:07;98594.36;;;9.26;100.00
23899;BME280;20544;50.018;20.010;2023-02-18T11:36:26;98588.94;;;9.19;100.00
23899;BME280;20544;50.018;20.010;2023-02-18T11:39:42;98574.80;;;9.12;100.00
23899;BME280;20544;50.018;20.010;2023-02-18T11:43:06;98584.91;;;9.09;100.00
23899;BME280;20544;50.018;20.010;2023-02-18T11:46:23;98580.48;;;9.01;100.00
23899;BME280;20544;50.018;20.010;2023-02-18T11:49:38;98573.43;;;8.93;100.00
23899;BME280;20544;50.018;20.010;2023-02-18T11:56:42;98573.91;;;8.73;100.00
23899;BME280;20544;50.018;20.010;2023-02-18T11:59:59;98567.48;;;8.68;100.00
23899;BME280;20544;50.018;20.010;2023-02-18T12:03:22;98561.76;;;8.56;100.00
23899;BME280;20544;50.018;20.010;2023-02-18T12:06:32;98566.48;;;8.37;100.00
23899;BME280;20544;50.018;20.010;2023-02-18T12:09:48;98569.27;;;8.36;100.00
23899;BME280;20544;50.018;20.010;2023-02-18T12:13:06;98563.89;;;8.21;100.00
23899;BME280;20544;50.018;20.010;2023-02-18T12:16:27;98561.80;;;8.08;100.00
23899;BME280;20544;50.018;20.010;2023-02-18T12:19:47;98555.86;;;8.06;100.00
23899;BME280;20544;50.018;20.010;2023-02-18T12:23:16;98547.07;;;8.14;100.00
23899;BME280;20544;50.018;20.010;2023-02-18T12:26:35;98546.81;;;8.00;100.00
23899;BME280;20544;50.018;20.010;2023-02-18T12:29:58;98540.55;;;8.01;100.00
23899;BME280;20544;50.018;20.010;2023-02-18T12:33:30;98538.03;;;8.08;100.00
23899;BME280;20544;50.018;20.010;2023-02-18T12:36:53;98534.91;;;8.04;100.00
23899;BME280;20544;50.018;20.010;2023-02-18T12:40:19;98532.57;;;8.09;100.00
23899;BME280;20544;50.018;20.010;2023-02-18T12:43:41;98527.44;;;8.16;100.00
23899;BME280;20544;50.018;20.010;2023-02-18T12:47:09;98517.38;;;8.12;100.00
23899;BME280;20544;50.018;20.010;2023-02-18T12:50:31;98500.18;;;8.16;100.00
23899;BME280;20544;50.018;20.010;2023-02-18T12:57:32;98489.83;;;8.06;100.00
23899;BME280;20544;50.018;20.010;2023-02-18T13:01:05;98489.52;;;8.01;100.00
23899;BME280;20544;50.018;20.010;2023-02-18T13:04:46;98480.25;;;8.05;100.00
23899;BME280;20544;50.018;20.010;2023-02-18T13:08:12;98464.10;;;8.00;100.00
23899;BME280;20544;50.018;20.010;2023-02-18T13:11:46;98449.22;;;8.07;100.00
23899;BME280;20544;50.018;20.010;2023-02-18T13:15:04;98446.16;;;7.95;100.00
23899;BME280;20544;50.018;20.010;2023-02-18T13:18:21;98436.04;;;7.99;100.00
23899;BME280;20544;50.018;20.010;2023-02-18T13:21:39;98431.78;;;7.98;100.00
23899;BME280;20544;50.018;20.010;2023-02-18T13:24:53;98442.19;;;7.91;100.00
23899;BME280;20544;50.018;20.010;2023-02-18T13:28:10;98433.46;;;7.90;100.00
23899;BME280;20544;50.018;20.010;2023-02-18T13:31:30;98431.81;;;7.89;100.00
23899;BME280;20544;50.018;20.010;2023-02-18T13:34:48;98415.42;;;7.63;100.00
23899;BME280;20544;50.018;20.010;2023-02-18T13:38:11;98400.52;;;7.78;100.00
23899;BME280;20544;50.018;20.010;2023-02-18T13:41:32;98393.41;;;7.78;100.00
23899;BME280;20544;50.018;20.010;2023-02-18T13:48:38;98394.16;;;7.64;100.00
23899;BME280;20544;50.018;20.010;2023-02-18T13:51:55;98387.30;;;7.47;100.00
23899;BME280;20544;50.018;20.010;2023-02-18T13:55:17;98372.64;;;7.44;100.00
23899;BME280;20544;50.018;20.010;2023-02-18T13:58:41;98367.69;;;7.41;100.00
23899;BME280;20544;50.018;20.010;2023-02-18T14:01:56;98350.66;;;7.52;100.00
23899;BME280;20544;50.018;20.010;2023-02-18T14:05:24;98344.42;;;7.44;100.00
23899;BME280;20544;50.018;20.010;2023-02-18T14:08:44;98342.92;;;7.50;100.00
23899;BME280;20544;50.018;20.010;2023-02-18T14:11:59;98321.97;;;7.49;100.00
23899;BME280;20544;50.018;20.010;2023-02-18T14:15:50;98307.88;;;7.33;100.00
23899;BME280;20544;50.018;20.010;2023-02-18T14:19:24;98301.76;;;7.33;100.00
23899;BME280;20544;50.018;20.010;2023-02-18T14:22:45;98286.26;;;7.38;100.00
23899;BME280;20544;50.018;20.010;2023-02-18T14:26:05;98282.96;;;7.36;100.00
23899;BME280;20544;50.018;20.010;2023-02-18T14:29:27;98286.29;;;7.29;100.00
23899;BME280;20544;50.018;20.010;2023-02-18T14:32:49;98263.42;;;7.22;100.00
23899;BME280;20544;50.018;20.010;2023-02-18T14:36:08;98252.87;;;7.22;100.00
23899;BME280;20544;50.018;20.010;2023-02-18T14:39:36;98255.83;;;7.19;100.00
23899;BME280;20544;50.018;20.010;2023-02-18T14:42:57;98244.44;;;7.26;100.00
23899;BME280;20544;50.018;20.010;2023-02-18T14:46:14;98229.53;;;7.34;100.00
23899;BME280;20544;50.018;20.010;2023-02-18T14:49:36;98224.73;;;7.14;100.00
23899;BME280;20544;50.018;20.010;2023-02-18T14:52:53;98214.47;;;7.19;100.00
23899;BME280;20544;50.018;20.010;2023-02-18T14:56:13;98204.08;;;7.18;100.00
23899;BME280;20544;50.018;20.010;2023-02-18T14:59:40;98201.44;;;7.18;100.00
23899;BME280;20544;50.018;20.010;2023-02-18T15:02:59;98197.30;;;7.23;100.00
23899;BME280;20544;50.018;20.010;2023-02-18T15:06:24;98197.77;;;7.27;100.00
23899;BME280;20544;50.018;20.010;2023-02-18T15:09:48;98176.67;;;7.27;100.00
23899;BME280;20544;50.018;20.010;2023-02-18T15:13:03;98189.60;;;7.13;100.00
23899;BME280;20544;50.018;20.010;2023-02-18T15:16:19;98162.89;;;7.17;100.00
23899;BME280;20544;50.018;20.010;2023-02-18T15:19:36;98167.03;;;7.11;100.00
23899;BME280;20544;50.018;20.010;2023-02-18T15:22:52;98169.02;;;7.09;100.00
23899;BME280;20544;50.018;20.010;2023-02-18T15:26:10;98143.59;;;6.93;100.00
23899;BME280;20544;50.018;20.010;2023-02-18T15:29:26;98133.09;;;6.85;100.00
23899;BME280;20544;50.018;20.010;2023-02-18T15:32:43;98133.30;;;6.75;100.00
23899;BME280;20544;50.018;20.010;2023-02-18T15:36:03;98111.00;;;6.86;100.00
23899;BME280;20544;50.018;20.010;2023-02-18T15:39:18;98102.73;;;6.66;100.00
23899;BME280;20544;50.018;20.010;2023-02-18T15:42:36;98093.69;;;6.60;100.00
23899;BME280;20544;50.018;20.010;2023-02-18T15:45:50;98098.95;;;6.60;100.00
23899;BME280;20544;50.018;20.010;2023-02-18T15:49:07;98078.56;;;6.54;100.00
23899;BME280;20544;50.018;20.010;2023-02-18T15:52:26;98061.80;;;6.46;100.00
23899;BME280;20544;50.018;20.010;2023-02-18T15:55:44;98051.11;;;6.48;100.00
23899;BME280;20544;50.018;20.010;2023-02-18T15:59:14;98044.05;;;6.40;100.00
23899;BME280;20544;50.018;20.010;2023-02-18T16:02:34;98044.05;;;6.40;100.00
23899;BME280;20544;50.018;20.010;2023-02-18T16:05:50;98033.88;;;6.37;100.00
23899;BME280;20544;50.018;20.010;2023-02-18T16:09:24;98017.48;;;6.27;100.00
23899;BME280;20544;50.018;20.010;2023-02-18T16:12:43;98014.66;;;6.28;100.00
23899;BME280;20544;50.018;20.010;2023-02-18T16:16:01;98004.42;;;6.34;100.00
23899;BME280;20544;50.018;20.010;2023-02-18T16:19:23;98015.95;;;6.33;100.00
23899;BME280;20544;50.018;20.010;2023-02-18T16:22:46;98007.75;;;6.27;100.00
23899;BME280;20544;50.018;20.010;2023-02-18T16:29:44;98006.95;;;6.50;100.00
23899;BME280;20544;50.018;20.010;2023-02-18T16:32:59;98001.21;;;6.46;100.00
23899;BME280;20544;50.018;20.010;2023-02-18T16:36:20;98003.70;;;6.48;100.00
23899;BME280;20544;50.018;20.010;2023-02-18T16:39:37;97986.53;;;6.52;100.00
23899;BME280;20544;50.018;20.010;2023-02-18T16:42:52;97990.11;;;6.59;100.00
23899;BME280;20544;50.018;20.010;2023-02-18T16:46:07;97991.03;;;6.67;100.00
23899;BME280;20544;50.018;20.010;2023-02-18T16:49:23;97986.31;;;6.62;100.00
23899;BME280;20544;50.018;20.010;2023-02-18T16:52:37;97993.80;;;6.73;100.00
23899;BME280;20544;50.018;20.010;2023-02-18T16:55:51;97988.63;;;6.80;100.00
23899;BME280;20544;50.018;20.010;2023-02-18T16:59:06;97991.02;;;6.90;100.00
23899;BME280;20544;50.018;20.010;2023-02-18T17:02:20;97988.80;;;7.02;100.00
23899;BME280;20544;50.018;20.010;2023-02-18T17:05:34;97993.98;;;7.10;100.00
23899;BME280;20544;50.018;20.010;2023-02-18T17:08:49;97985.29;;;7.24;100.00
23899;BME280;20544;50.018;20.010;2023-02-18T17:12:05;97993.75;;;7.35;100.00
23899;BME280;20544;50.018;20.010;2023-02-18T17:15:27;97985.58;;;7.44;100.00
23899;BME280;20544;50.018;20.010;2023-02-18T17:18:42;97981.69;;;7.55;100.00
23899;BME280;20544;50.018;20.010;2023-02-18T17:21:56;97983.86;;;7.67;100.00
23899;BME280;20544;50.018;20.010;2023-02-18T17:25:13;97987.84;;;7.77;100.00
23899;BME280;20544;50.018;20.010;2023-02-18T17:28:31;97977.66;;;7.89;100.00
23899;BME280;20544;50.018;20.010;2023-02-18T17:31:45;97991.02;;;8.03;100.00
23899;BME280;20544;50.018;20.010;2023-02-18T17:34:59;97991.35;;;8.15;100.00
23899;BME280;20544;50.018;20.010;2023-02-18T17:38:14;97993.61;;;8.33;100.00
23899;BME280;20544;50.018;20.010;2023-02-18T17:41:29;97993.20;;;8.51;100.00
23899;BME280;20544;50.018;20.010;2023-02-18T17:44:42;97981.96;;;8.64;100.00
23899;BME280;20544;50.018;20.010;2023-02-18T17:47:57;97983.45;;;8.73;100.00
23899;BME280;20544;50.018;20.010;2023-02-18T17:51:12;97990.08;;;8.84;100.00